createdAt,value
2023-03-27T00:00:17.963Z,73.44
2023-03-27T00:01:17.993Z,72.82
2023-03-27T00:02:17.971Z,72.31
2023-03-27T00:03:18.051Z,72.65
2023-03-27T00:04:19.111Z,72.44
2023-03-27T00:05:18.882Z,72.44
2023-03-27T00:06:17.916Z,72.82
2023-03-27T00:07:17.888Z,71.89
2023-03-27T00:08:17.862Z,71.89
2023-03-27T00:09:17.849Z,72.20
2023-03-27T00:10:18.872Z,71.38
2023-03-27T00:11:17.884Z,72.41
2023-03-27T00:12:17.810Z,72.27
2023-03-27T00:13:18.816Z,71.38
2023-03-27T00:14:18.831Z,72.00
2023-03-27T00:15:17.786Z,71.69
2023-03-27T00:16:17.854Z,72.20
2023-03-27T00:17:17.768Z,71.69
2023-03-27T00:18:18.757Z,71.48
2023-03-27T00:19:17.765Z,72.20
2023-03-27T00:20:18.738Z,71.59
2023-03-27T00:21:17.763Z,72.20
2023-03-27T00:22:17.755Z,72.00
2023-03-27T00:23:17.745Z,70.76
2023-03-27T00:24:17.689Z,70.76
2023-03-27T00:25:17.683Z,70.87
2023-03-27T00:26:17.655Z,71.45
2023-03-27T00:27:17.697Z,71.79
2023-03-27T00:28:17.632Z,71.35
2023-03-27T00:29:18.669Z,71.55
2023-03-27T00:30:17.606Z,71.14
2023-03-27T00:31:17.645Z,70.66
2023-03-27T00:32:18.609Z,71.59
2023-03-27T00:33:18.570Z,71.89
2023-03-27T00:34:17.575Z,72.00
2023-03-27T00:35:17.683Z,72.51
2023-03-27T00:36:17.573Z,72.41
2023-03-27T00:37:17.531Z,71.83
2023-03-27T00:38:17.556Z,71.93
2023-03-27T00:39:17.551Z,72.41
2023-03-27T00:40:17.555Z,72.41
2023-03-27T00:41:17.589Z,72.10
2023-03-27T00:42:17.499Z,72.51
2023-03-27T00:43:17.476Z,71.48
2023-03-27T00:44:17.488Z,71.79
2023-03-27T00:45:17.468Z,71.89
2023-03-27T00:46:17.525Z,72.61
2023-03-27T00:47:17.439Z,72.68
2023-03-27T00:48:17.428Z,72.41
2023-03-27T00:49:17.430Z,72.41
2023-03-27T00:50:17.434Z,72.10
2023-03-27T00:51:17.444Z,72.31
2023-03-27T00:52:17.406Z,71.51
2023-03-27T00:53:18.379Z,72.55
2023-03-27T00:54:17.389Z,72.61
2023-03-27T00:55:18.354Z,72.65
2023-03-27T00:56:17.357Z,71.41
2023-03-27T00:57:17.455Z,70.90
2023-03-27T00:58:18.362Z,71.48
2023-03-27T00:59:17.315Z,71.62
2023-03-27T01:00:17.313Z,71.48
2023-03-27T01:01:17.306Z,69.90
2023-03-27T01:02:17.297Z,70.59
2023-03-27T01:03:17.365Z,70.04
2023-03-27T01:04:17.281Z,69.90
2023-03-27T01:05:18.258Z,70.01
2023-03-27T01:06:17.371Z,70.32
2023-03-27T01:07:17.211Z,70.52
2023-03-27T01:08:17.200Z,70.25
2023-03-27T01:09:20.610Z,69.70
2023-03-27T01:10:18.239Z,69.67
2023-03-27T01:11:18.165Z,68.88
2023-03-27T01:12:17.152Z,69.26
2023-03-27T01:13:17.190Z,68.13
2023-03-27T01:14:18.179Z,68.43
2023-03-27T01:15:17.123Z,68.95
2023-03-27T01:16:17.133Z,67.51
2023-03-27T01:17:17.114Z,67.61
2023-03-27T01:18:17.121Z,67.71
2023-03-27T01:19:17.126Z,67.75
2023-03-27T01:20:17.078Z,67.92
2023-03-27T01:21:17.048Z,68.16
2023-03-27T01:22:17.082Z,67.71
2023-03-27T01:23:17.031Z,68.54
2023-03-27T01:24:18.061Z,68.26
2023-03-27T01:25:17.070Z,68.26
2023-03-27T01:26:17.018Z,69.12
2023-03-27T01:27:17.985Z,69.42
2023-03-27T01:28:16.982Z,69.73
2023-03-27T01:29:17.004Z,69.84
2023-03-27T01:30:16.971Z,69.76
2023-03-27T01:31:17.061Z,69.56
2023-03-27T01:32:16.979Z,69.63
2023-03-27T01:33:16.917Z,69.73
2023-03-27T01:34:17.926Z,69.22
2023-03-27T01:35:16.961Z,69.15
2023-03-27T01:36:16.930Z,68.60
2023-03-27T01:37:16.895Z,68.74
2023-03-27T01:38:16.908Z,69.25
2023-03-27T01:39:16.851Z,69.35
2023-03-27T01:40:16.921Z,69.63
2023-03-27T01:41:16.864Z,69.18
2023-03-27T01:42:17.908Z,68.32
2023-03-27T01:43:16.838Z,69.04
2023-03-27T01:44:16.844Z,69.22
2023-03-27T01:45:16.814Z,69.32
2023-03-27T01:46:16.862Z,68.88
2023-03-27T01:47:16.769Z,68.70
2023-03-27T01:48:16.778Z,68.63
2023-03-27T01:49:16.779Z,68.80
2023-03-27T01:50:16.773Z,68.02
2023-03-27T01:51:16.716Z,69.35
2023-03-27T01:52:16.777Z,69.87
2023-03-27T01:53:16.713Z,69.15
2023-03-27T01:54:16.731Z,69.25
2023-03-27T01:55:16.707Z,69.87
2023-03-27T01:56:17.732Z,69.32
2023-03-27T01:57:16.703Z,69.15
2023-03-27T01:58:16.657Z,68.74
2023-03-27T01:59:16.650Z,68.74
2023-03-27T02:00:17.917Z,67.33
2023-03-27T02:01:16.674Z,69.31
2023-03-27T02:02:16.653Z,70.00
2023-03-27T02:03:16.590Z,69.59
2023-03-27T02:04:16.632Z,68.35
2023-03-27T02:05:16.631Z,67.53
2023-03-27T02:06:16.588Z,68.12
2023-03-27T02:07:16.596Z,67.50
2023-03-27T02:08:16.615Z,67.60
2023-03-27T02:09:16.545Z,67.09
2023-03-27T02:10:16.536Z,66.88
2023-03-27T02:11:16.517Z,67.19
2023-03-27T02:12:17.485Z,66.58
2023-03-27T02:13:16.479Z,67.30
2023-03-27T02:14:16.543Z,67.30
2023-03-27T02:15:23.100Z,67.60
2023-03-27T02:16:17.555Z,67.19
2023-03-27T02:17:16.475Z,67.47
2023-03-27T02:18:16.477Z,67.78
2023-03-27T02:19:16.455Z,66.34
2023-03-27T02:20:16.470Z,67.30
2023-03-27T02:21:16.415Z,67.47
2023-03-27T02:22:16.388Z,67.50
2023-03-27T02:23:17.444Z,67.71
2023-03-27T02:24:16.409Z,67.81
2023-03-27T02:25:16.348Z,67.06
2023-03-27T02:26:16.374Z,67.78
2023-03-27T02:27:16.410Z,67.36
2023-03-27T02:28:16.324Z,67.06
2023-03-27T02:29:16.367Z,67.57
2023-03-27T02:30:16.336Z,67.98
2023-03-27T02:31:32.522Z,67.95
2023-03-27T02:32:17.310Z,67.95
2023-03-27T02:33:17.334Z,67.44
2023-03-27T02:34:16.263Z,68.50
2023-03-27T02:35:16.306Z,69.12
2023-03-27T02:36:16.247Z,69.22
2023-03-27T02:37:16.334Z,69.18
2023-03-27T02:38:16.223Z,69.39
2023-03-27T02:39:16.232Z,69.18
2023-03-27T02:40:17.285Z,68.67
2023-03-27T02:41:16.211Z,69.18
2023-03-27T02:42:16.223Z,69.15
2023-03-27T02:43:16.231Z,68.98
2023-03-27T02:44:16.151Z,69.18
2023-03-27T02:45:16.156Z,69.09
2023-03-27T02:46:16.225Z,69.29
2023-03-27T02:47:17.124Z,69.18
2023-03-27T02:48:16.186Z,69.29
2023-03-27T02:49:16.114Z,68.40
2023-03-27T02:50:17.088Z,69.32
2023-03-27T02:51:16.168Z,69.84
2023-03-27T02:52:16.086Z,69.32
2023-03-27T02:53:17.062Z,69.60
2023-03-27T02:54:16.085Z,69.29
2023-03-27T02:55:16.079Z,68.80
2023-03-27T02:56:16.079Z,68.91
2023-03-27T02:57:16.031Z,69.25
2023-03-27T02:58:16.028Z,69.46
2023-03-27T02:59:16.006Z,69.84
2023-03-27T03:00:16.027Z,69.66
2023-03-27T03:01:16.003Z,69.66
2023-03-27T03:02:16.061Z,69.66
2023-03-27T03:03:16.006Z,70.00
2023-03-27T03:04:16.933Z,69.90
2023-03-27T03:05:15.954Z,69.90
2023-03-27T03:06:16.934Z,69.38
2023-03-27T03:07:15.912Z,69.28
2023-03-27T03:08:15.922Z,69.18
2023-03-27T03:09:16.898Z,69.04
2023-03-27T03:10:15.881Z,68.74
2023-03-27T03:11:15.945Z,68.32
2023-03-27T03:12:15.854Z,68.22
2023-03-27T03:13:16.843Z,68.84
2023-03-27T03:14:15.861Z,68.94
2023-03-27T03:15:15.808Z,68.94
2023-03-27T03:16:15.861Z,68.53
2023-03-27T03:17:15.836Z,68.87
2023-03-27T03:18:15.778Z,68.63
2023-03-27T03:19:16.798Z,69.18
2023-03-27T03:20:16.800Z,69.25
2023-03-27T03:21:16.789Z,69.46
2023-03-27T03:22:15.754Z,69.01
2023-03-27T03:23:15.798Z,68.53
2023-03-27T03:24:15.724Z,68.77
2023-03-27T03:25:15.716Z,69.07
2023-03-27T03:26:15.723Z,69.07
2023-03-27T03:27:15.746Z,69.28
2023-03-27T03:28:15.694Z,69.28
2023-03-27T03:29:15.700Z,69.83
2023-03-27T03:30:16.533Z,70.00
2023-03-27T03:31:15.719Z,70.00
2023-03-27T03:32:15.660Z,70.00
2023-03-27T03:33:16.642Z,69.25
2023-03-27T03:34:15.632Z,69.46
2023-03-27T03:35:16.654Z,69.25
2023-03-27T03:36:16.609Z,69.56
2023-03-27T03:37:15.649Z,69.35
2023-03-27T03:38:15.563Z,69.25
2023-03-27T03:39:15.553Z,69.25
2023-03-27T03:40:15.592Z,68.91
2023-03-27T03:41:15.594Z,68.94
2023-03-27T03:42:22.895Z,68.84
2023-03-27T03:43:16.509Z,68.74
2023-03-27T03:44:15.495Z,68.84
2023-03-27T03:45:16.545Z,68.98
2023-03-27T03:46:15.547Z,69.70
2023-03-27T03:47:15.472Z,69.59
2023-03-27T03:48:15.482Z,69.83
2023-03-27T03:49:15.477Z,70.34
2023-03-27T03:50:15.433Z,70.14
2023-03-27T03:51:15.482Z,70.14
2023-03-27T03:52:15.433Z,69.96
2023-03-27T03:53:15.431Z,70.37
2023-03-27T03:54:16.390Z,70.65
2023-03-27T03:55:15.421Z,70.24
2023-03-27T03:56:15.429Z,70.65
2023-03-27T03:57:15.596Z,70.34
2023-03-27T03:58:15.498Z,70.00
2023-03-27T03:59:15.348Z,70.14
2023-03-27T04:00:15.340Z,70.45
2023-03-27T04:01:15.325Z,70.31
2023-03-27T04:02:15.460Z,69.90
2023-03-27T04:03:15.421Z,69.90
2023-03-27T04:04:15.453Z,69.11
2023-03-27T04:05:15.265Z,68.11
2023-03-27T04:06:15.260Z,69.07
2023-03-27T04:07:16.288Z,68.90
2023-03-27T04:08:16.255Z,68.96
2023-03-27T04:09:15.229Z,69.10
2023-03-27T04:10:16.240Z,68.96
2023-03-27T04:11:15.207Z,68.96
2023-03-27T04:12:15.217Z,68.69
2023-03-27T04:13:15.169Z,69.20
2023-03-27T04:14:15.173Z,69.17
2023-03-27T04:15:15.193Z,68.90
2023-03-27T04:16:16.204Z,69.41
2023-03-27T04:17:15.145Z,69.41
2023-03-27T04:18:15.356Z,69.62
2023-03-27T04:19:15.120Z,69.41
2023-03-27T04:20:15.142Z,69.72
2023-03-27T04:21:16.094Z,69.72
2023-03-27T04:22:15.124Z,69.48
2023-03-27T04:23:15.089Z,69.48
2023-03-27T04:24:15.102Z,69.48
2023-03-27T04:25:15.093Z,69.69
2023-03-27T04:26:15.118Z,69.38
2023-03-27T04:27:15.021Z,69.38
2023-03-27T04:28:15.003Z,69.48
2023-03-27T04:29:16.055Z,69.79
2023-03-27T04:30:15.047Z,69.82
2023-03-27T04:31:15.000Z,69.72
2023-03-27T04:32:14.975Z,70.13
2023-03-27T04:33:14.963Z,70.44
2023-03-27T04:34:15.993Z,70.57
2023-03-27T04:35:14.948Z,70.65
2023-03-27T04:36:15.048Z,70.10
2023-03-27T04:37:15.943Z,69.82
2023-03-27T04:38:15.022Z,70.00
2023-03-27T04:39:14.910Z,70.03
2023-03-27T04:40:15.942Z,70.23
2023-03-27T04:41:14.884Z,70.34
2023-03-27T04:42:14.898Z,70.03
2023-03-27T04:43:14.867Z,70.03
2023-03-27T04:44:14.882Z,70.20
2023-03-27T04:45:14.825Z,70.82
2023-03-27T04:46:14.919Z,71.02
2023-03-27T04:47:14.906Z,70.68
2023-03-27T04:48:14.805Z,70.57
2023-03-27T04:49:15.925Z,71.12
2023-03-27T04:50:14.792Z,71.12
2023-03-27T04:51:14.827Z,70.82
2023-03-27T04:52:14.763Z,71.12
2023-03-27T04:53:14.761Z,70.92
2023-03-27T04:54:14.735Z,71.02
2023-03-27T04:55:14.751Z,70.82
2023-03-27T04:56:15.721Z,71.33
2023-03-27T04:57:15.801Z,71.12
2023-03-27T04:58:15.694Z,71.02
2023-03-27T04:59:14.689Z,70.72
2023-03-27T05:00:14.681Z,70.72
2023-03-27T05:01:14.744Z,70.61
2023-03-27T05:02:15.652Z,70.47
2023-03-27T05:03:15.771Z,70.27
2023-03-27T05:04:14.624Z,70.20
2023-03-27T05:05:14.662Z,69.99
2023-03-27T05:06:14.624Z,70.12
2023-03-27T05:07:14.628Z,70.43
2023-03-27T05:08:14.582Z,70.57
2023-03-27T05:09:14.565Z,70.95
2023-03-27T05:10:15.554Z,71.23
2023-03-27T05:11:14.601Z,71.12
2023-03-27T05:12:14.557Z,70.72
2023-03-27T05:13:14.535Z,70.20
2023-03-27T05:14:14.513Z,70.51
2023-03-27T05:15:14.515Z,70.95
2023-03-27T05:16:15.556Z,70.75
2023-03-27T05:17:14.522Z,70.95
2023-03-27T05:18:14.466Z,71.06
2023-03-27T05:19:15.455Z,71.16
2023-03-27T05:20:15.449Z,70.85
2023-03-27T05:21:14.435Z,70.75
2023-03-27T05:22:15.457Z,70.64
2023-03-27T05:23:14.412Z,71.30
2023-03-27T05:24:15.444Z,71.26
2023-03-27T05:25:15.374Z,71.16
2023-03-27T05:26:15.400Z,70.92
2023-03-27T05:27:14.394Z,70.95
2023-03-27T05:28:14.389Z,70.57
2023-03-27T05:29:14.357Z,71.09
2023-03-27T05:30:14.338Z,71.09
2023-03-27T05:31:15.387Z,70.98
2023-03-27T05:32:14.324Z,71.09
2023-03-27T05:33:14.339Z,71.19
2023-03-27T05:34:14.334Z,71.12
2023-03-27T05:35:14.288Z,72.05
2023-03-27T05:36:15.276Z,71.40
2023-03-27T05:37:14.262Z,71.16
2023-03-27T05:38:15.241Z,70.61
2023-03-27T05:39:14.234Z,71.09
2023-03-27T05:40:14.261Z,70.98
2023-03-27T05:41:14.216Z,71.12
2023-03-27T05:42:14.224Z,71.19
2023-03-27T05:43:15.211Z,72.16
2023-03-27T05:44:14.237Z,71.95
2023-03-27T05:45:14.227Z,71.43
2023-03-27T05:46:14.183Z,71.61
2023-03-27T05:47:15.123Z,71.92
2023-03-27T05:48:15.110Z,71.37
2023-03-27T05:49:14.129Z,71.06
2023-03-27T05:50:14.130Z,70.51
2023-03-27T05:51:14.141Z,70.43
2023-03-27T05:52:14.127Z,70.20
2023-03-27T05:53:14.093Z,70.20
2023-03-27T05:54:15.079Z,69.99
2023-03-27T05:55:14.068Z,69.89
2023-03-27T05:56:14.050Z,69.78
2023-03-27T05:57:14.110Z,69.48
2023-03-27T05:58:14.038Z,69.30
2023-03-27T05:59:13.989Z,70.57
2023-03-27T06:00:14.073Z,70.78
2023-03-27T06:01:13.980Z,70.98
2023-03-27T06:02:14.014Z,70.33
2023-03-27T06:03:14.179Z,70.23
2023-03-27T06:04:13.995Z,69.99
2023-03-27T06:05:14.929Z,69.58
2023-03-27T06:06:14.924Z,69.17
2023-03-27T06:07:13.919Z,69.23
2023-03-27T06:08:14.969Z,69.71
2023-03-27T06:09:13.895Z,69.71
2023-03-27T06:10:14.402Z,69.48
2023-03-27T06:11:13.896Z,69.44
2023-03-27T06:12:13.861Z,68.96
2023-03-27T06:13:13.894Z,68.30
2023-03-27T06:14:13.918Z,68.48
2023-03-27T06:15:13.838Z,68.37
2023-03-27T06:16:13.886Z,68.85
2023-03-27T06:17:13.843Z,68.96
2023-03-27T06:18:13.814Z,68.93
2023-03-27T06:19:13.845Z,68.48
2023-03-27T06:20:14.793Z,68.44
2023-03-27T06:21:13.782Z,68.85
2023-03-27T06:22:14.791Z,68.37
2023-03-27T06:23:14.825Z,68.34
2023-03-27T06:24:13.801Z,67.82
2023-03-27T06:25:13.798Z,68.30
2023-03-27T06:26:14.849Z,67.72
2023-03-27T06:27:13.708Z,68.85
2023-03-27T06:28:13.704Z,68.34
2023-03-27T06:29:13.679Z,68.06
2023-03-27T06:30:13.751Z,67.72
2023-03-27T06:31:14.765Z,67.93
2023-03-27T06:32:13.667Z,68.54
2023-03-27T06:33:14.080Z,68.24
2023-03-27T06:34:13.618Z,67.61
2023-03-27T06:35:14.743Z,67.93
2023-03-27T06:36:14.643Z,67.30
2023-03-27T06:37:13.621Z,66.97
2023-03-27T06:38:14.599Z,66.89
2023-03-27T06:39:13.624Z,67.27
2023-03-27T06:40:13.583Z,67.27
2023-03-27T06:41:14.579Z,66.63
2023-03-27T06:42:13.643Z,65.76
2023-03-27T06:43:13.522Z,66.76
2023-03-27T06:44:14.502Z,65.73
2023-03-27T06:45:13.513Z,65.21
2023-03-27T06:46:13.570Z,65.28
2023-03-27T06:47:14.541Z,65.05
2023-03-27T06:48:20.579Z,64.74
2023-03-27T06:49:14.555Z,64.49
2023-03-27T06:50:13.467Z,65.00
2023-03-27T06:51:13.677Z,65.62
2023-03-27T06:52:13.447Z,65.59
2023-03-27T06:53:25.966Z,65.67
2023-03-27T06:54:14.414Z,64.84
2023-03-27T06:55:14.940Z,63.71
2023-03-27T06:56:13.404Z,63.09
2023-03-27T06:57:13.437Z,63.50
2023-03-27T06:58:13.373Z,63.71
2023-03-27T06:59:13.360Z,63.40
2023-03-27T07:00:13.364Z,63.81
2023-03-27T07:01:13.358Z,63.29
2023-03-27T07:02:13.353Z,63.53
2023-03-27T07:03:13.351Z,63.60
2023-03-27T07:04:21.057Z,63.12
2023-03-27T07:05:13.317Z,63.77
2023-03-27T07:06:13.276Z,63.77
2023-03-27T07:07:13.293Z,63.87
2023-03-27T07:08:21.612Z,63.77
2023-03-27T07:09:14.340Z,63.67
2023-03-27T07:10:13.243Z,63.64
2023-03-27T07:11:13.348Z,63.12
2023-03-27T07:12:14.233Z,63.40
2023-03-27T07:13:13.246Z,63.60
2023-03-27T07:14:13.183Z,63.09
2023-03-27T07:15:13.164Z,62.57
2023-03-27T07:16:13.196Z,61.88
2023-03-27T07:17:13.168Z,61.78
2023-03-27T07:18:13.243Z,62.43
2023-03-27T07:19:14.045Z,63.01
2023-03-27T07:20:13.326Z,63.22
2023-03-27T07:21:14.103Z,62.60
2023-03-27T07:22:13.083Z,62.60
2023-03-27T07:23:13.104Z,63.06
2023-03-27T07:24:13.066Z,62.82
2023-03-27T07:25:13.082Z,62.00
2023-03-27T07:26:13.348Z,61.25
2023-03-27T07:27:13.038Z,60.05
2023-03-27T07:28:13.028Z,59.91
2023-03-27T07:29:14.027Z,59.94
2023-03-27T07:30:13.015Z,60.15
2023-03-27T07:31:25.985Z,60.05
2023-03-27T07:32:17.232Z,59.63
2023-03-27T07:33:14.039Z,59.37
2023-03-27T07:34:13.072Z,58.98
2023-03-27T07:35:12.946Z,59.06
2023-03-27T07:36:12.931Z,59.19
2023-03-27T07:37:12.956Z,59.06
2023-03-27T07:38:12.977Z,59.30
2023-03-27T07:39:12.914Z,58.78
2023-03-27T07:40:12.897Z,59.30
2023-03-27T07:41:12.905Z,58.94
2023-03-27T07:42:13.888Z,59.12
2023-03-27T07:43:13.843Z,59.66
2023-03-27T07:44:12.856Z,59.50
2023-03-27T07:45:12.825Z,58.98
2023-03-27T07:46:12.873Z,58.58
2023-03-27T07:47:12.852Z,58.26
2023-03-27T07:48:13.829Z,58.98
2023-03-27T07:49:12.806Z,56.46
2023-03-27T07:50:12.800Z,57.26
2023-03-27T07:51:14.479Z,57.50
2023-03-27T07:52:14.702Z,56.26
2023-03-27T07:53:32.902Z,57.18
2023-03-27T07:54:13.769Z,57.47
2023-03-27T07:55:12.722Z,57.86
2023-03-27T07:56:12.716Z,57.54
2023-03-27T07:57:12.823Z,56.21
2023-03-27T07:58:12.796Z,56.16
2023-03-27T07:59:12.725Z,55.85
2023-03-27T08:00:12.693Z,57.18
2023-03-27T08:01:12.693Z,57.88
2023-03-27T08:02:13.691Z,58.60
2023-03-27T08:03:12.797Z,58.40
2023-03-27T08:04:13.821Z,57.54
2023-03-27T08:05:12.712Z,55.93
2023-03-27T08:06:12.631Z,56.23
2023-03-27T08:07:12.643Z,56.05
2023-03-27T08:08:12.589Z,55.82
2023-03-27T08:09:12.605Z,55.90
2023-03-27T08:10:12.650Z,56.21
2023-03-27T08:11:22.966Z,56.21
2023-03-27T08:12:13.551Z,55.57
2023-03-27T08:13:12.575Z,55.46
2023-03-27T08:14:12.538Z,55.77
2023-03-27T08:15:12.512Z,55.64
2023-03-27T08:16:12.546Z,54.13
2023-03-27T08:17:16.330Z,53.94
2023-03-27T08:18:12.568Z,55.26
2023-03-27T08:19:12.464Z,54.77
2023-03-27T08:20:12.473Z,54.85
2023-03-27T08:21:12.437Z,54.94
2023-03-27T08:22:12.419Z,55.36
2023-03-27T08:23:12.438Z,53.94
2023-03-27T08:24:12.418Z,53.97
2023-03-27T08:25:12.393Z,55.51
2023-03-27T08:26:12.428Z,55.30
2023-03-27T08:27:12.402Z,55.90
2023-03-27T08:28:12.485Z,55.90
2023-03-27T08:29:13.383Z,55.05
2023-03-27T08:30:12.344Z,56.21
2023-03-27T08:31:12.387Z,56.10
2023-03-27T08:32:12.340Z,56.34
2023-03-27T08:33:12.344Z,56.13
2023-03-27T08:34:12.311Z,55.82
2023-03-27T08:35:12.523Z,55.51
2023-03-27T08:36:12.402Z,56.23
2023-03-27T08:37:12.269Z,55.72
2023-03-27T08:38:25.806Z,55.69
2023-03-27T08:39:13.254Z,55.80
2023-03-27T08:40:12.257Z,55.85
2023-03-27T08:41:13.260Z,55.41
2023-03-27T08:42:12.221Z,55.49
2023-03-27T08:43:12.274Z,54.90
2023-03-27T08:44:12.211Z,54.90
2023-03-27T08:45:12.166Z,54.72
2023-03-27T08:46:12.204Z,55.02
2023-03-27T08:47:12.215Z,55.02
2023-03-27T08:48:13.151Z,55.13
2023-03-27T08:49:12.128Z,55.93
2023-03-27T08:50:12.165Z,56.34
2023-03-27T08:51:12.990Z,55.13
2023-03-27T08:52:12.102Z,55.85
2023-03-27T08:53:13.143Z,54.74
2023-03-27T08:54:12.092Z,55.36
2023-03-27T08:55:12.073Z,55.05
2023-03-27T08:56:12.074Z,55.77
2023-03-27T08:57:12.094Z,55.80
2023-03-27T08:58:12.050Z,55.30
2023-03-27T08:59:12.068Z,55.41
2023-03-27T09:00:12.026Z,55.80
2023-03-27T09:01:12.032Z,56.41
2023-03-27T09:02:12.033Z,55.69
2023-03-27T09:03:13.081Z,55.66
2023-03-27T09:04:11.995Z,55.26
2023-03-27T09:05:11.969Z,56.59
2023-03-27T09:06:12.983Z,55.33
2023-03-27T09:07:11.932Z,54.10
2023-03-27T09:08:11.941Z,53.22
2023-03-27T09:09:11.931Z,53.61
2023-03-27T09:10:12.944Z,53.71
2023-03-27T09:11:11.930Z,53.41
2023-03-27T09:12:11.876Z,52.91
2023-03-27T09:13:11.903Z,54.38
2023-03-27T09:14:11.862Z,53.66
2023-03-27T09:15:11.874Z,52.71
2023-03-27T09:16:12.914Z,54.33
2023-03-27T09:17:11.877Z,54.02
2023-03-27T09:18:11.817Z,53.79
2023-03-27T09:19:11.791Z,52.53
2023-03-27T09:20:11.783Z,51.94
2023-03-27T09:21:11.783Z,51.12
2023-03-27T09:22:12.827Z,51.55
2023-03-27T09:23:11.754Z,50.91
2023-03-27T09:24:12.753Z,51.71
2023-03-27T09:25:11.729Z,51.40
2023-03-27T09:26:11.722Z,51.12
2023-03-27T09:27:11.765Z,50.50
2023-03-27T09:28:11.706Z,50.06
2023-03-27T09:29:12.722Z,49.47
2023-03-27T09:30:12.687Z,49.68
2023-03-27T09:31:11.724Z,48.83
2023-03-27T09:32:11.700Z,48.81
2023-03-27T09:33:11.719Z,48.29
2023-03-27T09:34:11.639Z,48.99
2023-03-27T09:35:11.665Z,48.19
2023-03-27T09:36:11.662Z,47.70
2023-03-27T09:37:11.612Z,48.01
2023-03-27T09:38:11.638Z,47.70
2023-03-27T09:39:11.600Z,48.21
2023-03-27T09:40:11.611Z,47.99
2023-03-27T09:41:11.554Z,47.60
2023-03-27T09:42:11.561Z,47.06
2023-03-27T09:43:11.590Z,46.83
2023-03-27T09:44:12.525Z,49.07
2023-03-27T09:45:11.544Z,48.43
2023-03-27T09:46:11.507Z,48.33
2023-03-27T09:47:11.489Z,47.33
2023-03-27T09:48:11.470Z,47.53
2023-03-27T09:49:11.502Z,47.22
2023-03-27T09:50:12.453Z,48.66
2023-03-27T09:51:11.450Z,48.14
2023-03-27T09:52:11.446Z,47.61
2023-03-27T09:53:11.444Z,48.13
2023-03-27T09:54:11.447Z,46.38
2023-03-27T09:55:11.444Z,47.45
2023-03-27T09:56:11.378Z,47.88
2023-03-27T09:57:11.431Z,46.77
2023-03-27T09:58:12.452Z,47.08
2023-03-27T09:59:11.371Z,47.19
2023-03-27T10:00:12.342Z,46.67
2023-03-27T10:01:12.410Z,47.19
2023-03-27T10:02:11.370Z,47.04
2023-03-27T10:03:11.391Z,46.42
2023-03-27T10:04:11.332Z,45.37
2023-03-27T10:05:11.321Z,46.38
2023-03-27T10:06:12.276Z,45.87
2023-03-27T10:07:11.280Z,45.66
2023-03-27T10:08:11.248Z,44.53
2023-03-27T10:09:11.269Z,45.43
2023-03-27T10:10:11.246Z,46.95
2023-03-27T10:11:11.231Z,45.72
2023-03-27T10:12:11.241Z,45.09
2023-03-27T10:13:11.242Z,46.01
2023-03-27T10:14:12.246Z,45.60
2023-03-27T10:15:11.222Z,45.57
2023-03-27T10:16:11.203Z,46.91
2023-03-27T10:17:12.171Z,47.42
2023-03-27T10:18:11.172Z,47.01
2023-03-27T10:19:11.183Z,46.81
2023-03-27T10:20:11.148Z,47.05
2023-03-27T10:21:11.139Z,48.94
2023-03-27T10:22:14.413Z,48.82
2023-03-27T10:23:11.122Z,49.87
2023-03-27T10:24:11.123Z,51.10
2023-03-27T10:25:11.089Z,51.02
2023-03-27T10:26:12.079Z,51.61
2023-03-27T10:27:11.062Z,52.12
2023-03-27T10:28:11.081Z,51.64
2023-03-27T10:29:11.031Z,51.33
2023-03-27T10:30:11.057Z,52.64
2023-03-27T10:31:11.023Z,49.38
2023-03-27T10:32:11.152Z,49.71
2023-03-27T10:33:11.066Z,50.63
2023-03-27T10:34:12.010Z,51.25
2023-03-27T10:35:12.038Z,54.02
2023-03-27T10:36:11.007Z,53.61
2023-03-27T10:37:10.964Z,53.23
2023-03-27T10:38:10.948Z,53.48
2023-03-27T10:39:10.936Z,53.89
2023-03-27T10:40:10.924Z,54.13
2023-03-27T10:41:10.934Z,54.25
2023-03-27T10:42:10.928Z,53.79
2023-03-27T10:43:12.642Z,53.61
2023-03-27T10:44:10.855Z,53.30
2023-03-27T10:45:10.842Z,53.38
2023-03-27T10:46:11.003Z,53.17
2023-03-27T10:47:10.846Z,53.35
2023-03-27T10:48:10.864Z,53.35
2023-03-27T10:49:11.821Z,51.66
2023-03-27T10:50:10.807Z,52.46
2023-03-27T10:51:10.830Z,52.44
2023-03-27T10:52:10.802Z,54.08
2023-03-27T10:53:10.842Z,51.41
2023-03-27T10:54:11.833Z,51.20
2023-03-27T10:55:10.784Z,51.20
2023-03-27T10:56:10.743Z,51.61
2023-03-27T10:57:10.780Z,51.92
2023-03-27T10:58:10.745Z,51.82
2023-03-27T10:59:10.741Z,52.12
2023-03-27T11:00:10.740Z,52.23
2023-03-27T11:01:10.733Z,51.28
2023-03-27T11:02:10.694Z,50.67
2023-03-27T11:03:10.813Z,51.07
2023-03-27T11:04:11.739Z,51.28
2023-03-27T11:05:10.659Z,52.26
2023-03-27T11:06:11.702Z,52.05
2023-03-27T11:07:10.642Z,51.93
2023-03-27T11:08:10.616Z,50.67
2023-03-27T11:09:10.613Z,49.24
2023-03-27T11:10:10.582Z,50.16
2023-03-27T11:11:10.584Z,50.14
2023-03-27T11:12:10.605Z,49.01
2023-03-27T11:13:10.553Z,48.19
2023-03-27T11:14:10.664Z,49.65
2023-03-27T11:15:10.546Z,49.96
2023-03-27T11:16:10.509Z,48.75
2023-03-27T11:17:10.542Z,48.06
2023-03-27T11:18:10.560Z,48.67
2023-03-27T11:19:10.536Z,51.39
2023-03-27T11:20:10.477Z,54.05
2023-03-27T11:21:10.458Z,55.57
2023-03-27T11:22:10.447Z,56.90
2023-03-27T11:23:10.466Z,57.21
2023-03-27T11:24:11.442Z,56.18
2023-03-27T11:25:10.433Z,55.69
2023-03-27T11:26:10.412Z,55.46
2023-03-27T11:27:11.410Z,55.26
2023-03-27T11:28:10.418Z,55.13
2023-03-27T11:29:11.369Z,55.00
2023-03-27T11:30:11.392Z,53.77
2023-03-27T11:31:12.205Z,53.33
2023-03-27T11:32:10.403Z,53.94
2023-03-27T11:33:10.375Z,53.74
2023-03-27T11:34:10.329Z,55.59
2023-03-27T11:35:10.336Z,55.26
2023-03-27T11:36:11.326Z,55.95
2023-03-27T11:37:11.294Z,54.00
2023-03-27T11:38:10.307Z,53.15
2023-03-27T11:39:10.312Z,51.92
2023-03-27T11:40:10.262Z,51.64
2023-03-27T11:41:10.259Z,51.33
2023-03-27T11:42:10.232Z,53.08
2023-03-27T11:43:11.215Z,54.92
2023-03-27T11:44:10.259Z,54.10
2023-03-27T11:45:10.224Z,54.10
2023-03-27T11:46:10.221Z,53.46
2023-03-27T11:47:10.181Z,53.77
2023-03-27T11:48:11.215Z,53.74
2023-03-27T11:49:10.146Z,53.25
2023-03-27T11:50:10.171Z,53.36
2023-03-27T11:51:10.184Z,53.36
2023-03-27T11:52:10.140Z,53.79
2023-03-27T11:53:10.134Z,55.13
2023-03-27T11:54:10.093Z,57.16
2023-03-27T11:55:10.169Z,58.06
2023-03-27T11:56:10.127Z,59.63
2023-03-27T11:57:10.144Z,60.06
2023-03-27T11:58:10.114Z,60.99
2023-03-27T11:59:10.041Z,61.12
2023-03-27T12:00:10.039Z,61.07
2023-03-27T12:01:10.013Z,61.27
2023-03-27T12:02:10.080Z,61.55
2023-03-27T12:03:10.190Z,60.01
2023-03-27T12:04:10.061Z,61.14
2023-03-27T12:05:10.983Z,59.91
2023-03-27T12:06:09.969Z,60.21
2023-03-27T12:07:12.174Z,58.85
2023-03-27T12:08:09.983Z,58.85
2023-03-27T12:09:09.941Z,58.69
2023-03-27T12:10:10.910Z,58.39
2023-03-27T12:11:10.920Z,57.03
2023-03-27T12:12:09.903Z,56.18
2023-03-27T12:13:09.909Z,54.25
2023-03-27T12:14:17.754Z,55.05
2023-03-27T12:15:10.923Z,52.59
2023-03-27T12:16:09.888Z,53.92
2023-03-27T12:17:09.898Z,53.31
2023-03-27T12:18:09.904Z,52.67
2023-03-27T12:19:21.128Z,52.75
2023-03-27T12:20:10.843Z,50.02
2023-03-27T12:21:09.812Z,49.29
2023-03-27T12:22:22.589Z,48.36
2023-03-27T12:23:10.787Z,48.26
2023-03-27T12:24:09.768Z,47.55
2023-03-27T12:25:09.773Z,46.19
2023-03-27T12:26:09.778Z,44.45
2023-03-27T12:27:09.773Z,44.02
2023-03-27T12:28:22.089Z,42.10
2023-03-27T12:29:23.819Z,43.02
2023-03-27T12:30:10.699Z,44.32
2023-03-27T12:31:10.748Z,44.41
2023-03-27T12:32:09.749Z,47.07
2023-03-27T12:33:09.711Z,45.20
2023-03-27T12:34:10.686Z,45.20
2023-03-27T12:35:09.644Z,44.17
2023-03-27T12:36:09.682Z,44.76
2023-03-27T12:37:09.666Z,43.84
2023-03-27T12:38:09.645Z,43.98
2023-03-27T12:39:10.616Z,44.38
2023-03-27T12:40:09.670Z,43.98
2023-03-27T12:41:09.634Z,43.98
2023-03-27T12:42:09.573Z,44.06
2023-03-27T12:43:09.550Z,43.55
2023-03-27T12:44:10.584Z,44.18
2023-03-27T12:45:10.548Z,44.08
2023-03-27T12:46:09.633Z,44.38
2023-03-27T12:47:09.523Z,46.53
2023-03-27T12:48:09.549Z,44.23
2023-03-27T12:49:09.538Z,44.20
2023-03-27T12:50:09.515Z,43.90
2023-03-27T12:51:09.495Z,43.98
2023-03-27T12:52:09.480Z,43.88